Tiempo atmosférico en la estación meteorológica de Sta.Cruz de Tenerife, Santa Cruz de Tenerife (35 m.)



Fecha
DESCASC
Temp. máxima en grados centígrados (hora)
DESCASC
Temp. mínima en grados centígrados (hora)
DESCASC
Temp. media en grados centígrados
DESCASC
Racha de viento máxima en m/sg (hora)
DESCASC
Velocidad máxima media en intervalos de 10 minutos(hora)
DESCASC
Precipitaciones diarias en mm
DESCASC
Precipitaciones de 00:00 a 06:00 en mm
DESCASC
Precipitaciones de 06:00 a 12:00 en mm
DESCASC
Precipitaciones de 12:00 a 18:00 en mm
DESCASC
Precipitaciones de 18:00 a 24:00 en mm
DESCASC
16-01-2020 21.5 (14:30) 14.4 (07:40) 17.9 6.11 (03:20) 4.17 (03:30) 0 0 0 0 0
15-01-2020 21.7 (14:50) 14.4 (07:40) 18.1 5.83 (04:40) 3.89 (04:30) 0 0 0 0 0
14-01-2020 22.6 (15:00) 15 (05:00) 18.8 10.56 (12:10) 5.83 (12:50) 0 0 0 0 0
13-01-2020 21.9 (15:00) 16.3 (23:40) 19.1 6.39 (16:40) 3.89 (04:10) 0 0 0 0 0
12-01-2020 20.6 (14:20) 16.8 (21:40) 18.7 8.06 (17:00) 4.72 (11:50) 0 0 0 0 0
11-01-2020 20.3 (14:50) 16.4 (00:00) 18.3 9.44 (15:20) 4.72 (15:20) 0 0 0 0 0
10-01-2020 21.6 (15:00) 17.2 (00:00) 19.4 9.72 (16:40) 4.17 (16:50) 0.4 0.2 0 0.2 0
09-01-2020 21.4 (15:50) 17.3 (00:00) 19.3 10.56 (13:10) 5.83 (13:00) 0 0 0 0 0
08-01-2020 -- (--) -- (--) -- -- (--) -- (--) -- 0 0 -- 0
07-01-2020 21 (14:30) 16.4 (00:00) 18.7 9.72 (01:00) 5 (00:50) 0 0 0 0 0
06-01-2020 21.5 (15:30) 17 (00:00) 19.3 12.5 (15:40) 6.94 (14:50) 1.6 1 0.2 0 0.4
05-01-2020 21.8 (14:50) 15.9 (00:00) 18.8 8.89 (16:00) 5.28 (15:00) 0 0 0 0 0
04-01-2020 20.9 (14:40) 16.3 (00:00) 18.6 7.22 (18:00) 3.89 (05:00) 0 0 0 0 0
03-01-2020 21 (13:30) 17 (00:00) 19 11.11 (07:30) 7.22 (07:30) 0 0 0 0 0
02-01-2020 21.4 (14:40) 15.2 (00:00) 18.3 8.33 (17:20) 5 (17:30) 0 0 0 0 0
01-01-2020 22.6 (13:00) 15.3 (00:00) 19 10.56 (13:50) 6.39 (13:50) 0 0 0 0 0
31-12-2019 21.4 (16:20) 15.4 (00:00) 18.4 6.11 (13:20) 3.89 (13:10) 0 0 0 0 0
30-12-2019 23.4 (14:20) 17.1 (00:00) 20.3 6.11 (15:30) 3.33 (03:10) 0 0 0 0 0
29-12-2019 23.5 (14:50) 17.7 (00:00) 20.6 6.11 (05:20) 3.61 (13:40) 0 0 0 0 0
28-12-2019 24.1 (14:00) 17.4 (00:00) 20.8 7.22 (11:10) 4.17 (12:40) 0 0 0 0 0
27-12-2019 24.6 (15:50) 17.1 (00:00) 20.9 8.61 (13:50) 4.44 (13:30) 0 0 0 0 0
26-12-2019 24.5 (15:50) 18.5 (00:00) 21.5 6.11 (21:40) 3.61 (02:30) 0 0 0 0 0
25-12-2019 24.5 (13:00) 18.3 (00:00) 21.4 15 (14:00) 8.06 (14:30) 0 0 0 0 0
24-12-2019 27.1 (14:40) 16.2 (03:30) 21.7 7.78 (14:40) 3.89 (21:50) 0 0 0 0 0
23-12-2019 22.3 (14:10) 17 (00:00) 19.6 7.5 (00:40) 3.89 (03:00) 0 0 0 0 0
22-12-2019 22.9 (13:40) 17.7 (00:30) 20.3 7.5 (17:00) 5 (16:50) 0 0 0 0 0
21-12-2019 23 (13:50) 15.7 (05:50) 19.3 5 (11:30) 3.33 (11:30) 0 0 0 0 0
20-12-2019 22.9 (14:40) 16.2 (00:00) 19.6 6.11 (14:50) 4.17 (14:20) 0 0 0 0 0

Gráficas

Temp. máximas Temp. mínimas Temp. medias Precipitaciones Rachas de viento máximas Velocidades máximas media en intervalos de 10 minutos

Datos horarios

Fecha y hora oficial Temperatura (ºC) Velocidad del viento (km/h) Dirección del viento Racha (km/h) Dirección de racha Precipitación (mm) Presión (hPa) Tendencia (hPa) Humedad (%)
2020-01-18 23:00:00 16.3 7 Oeste 11 Oeste 0 1023.4 0.2 71
2020-01-18 22:00:00 16.7 5 Oeste 7 Noroeste 0 1023.6 0.9 62
2020-01-18 21:00:00 17 4 Oeste 8 Noroeste 0 1023.2 0.8 60
2020-01-18 20:00:00 17.9 3 Nordeste 14 Este 0 1023.2 0.7 62
2020-01-18 19:00:00 18.6 8 Este 17 Este 0 1022.7 0.1 62
2020-01-18 18:00:00 19.1 8 Este 18 Este 0 1022.4 -0.4 57
2020-01-18 17:00:00 20.2 12 Este 22 Este 0 1022.5 -0.9 55
2020-01-18 16:00:00 21 10 Este 23 Este 0 1022.6 -1.7 54
2020-01-18 15:00:00 21.1 9 Este 21 Nordeste 0 1022.8 -2.5 57
2020-01-18 14:00:00 21.1 10 Este 19 Nordeste 0 1023.4 -2.5 58
2020-01-18 13:00:00 20.7 9 Nordeste 19 Nordeste 0 1024.3 -1.5 61
2020-01-18 12:00:00 19.9 9 Nordeste 18 Este 0 1025.3 0.2 67
2020-01-18 11:00:00 19.3 9 Este 15 Este 0 1025.9 1.3 70
2020-01-18 10:00:00 19.3 7 Este 17 Este 0 1025.8 1.9 69
2020-01-18 09:00:00 16.5 2 Oeste 12 Oeste 0 1025.1 1.7 81
2020-01-18 08:00:00 15.3 9 Oeste 14 Oeste 0 1024.6 1.1 83
2020-01-18 07:00:00 14.9 7 Oeste 11 Oeste 0 1023.9 0.2 82
2020-01-18 06:00:00 15 6 Oeste 8 Oeste 0 1023.4 -0.5 81
2020-01-18 05:00:00 14.8 6 Noroeste 16 Oeste 0 1023.5 -0.5 78
2020-01-18 04:00:00 14.7 13 Oeste 17 Oeste 0 1023.7 -0.7 75
2020-01-18 03:00:00 14.8 10 Oeste 15 Oeste 0 1023.9 -0.9 75
2020-01-18 02:00:00 14.9 8 Oeste 14 Oeste 0 1024 -0.9 70
2020-01-18 01:00:00 15.3 9 Oeste 13 Oeste 0 1024.4 0.2 71
2020-01-18 00:00:00 15.5 8 Oeste 15 Oeste 0 1024.8 0.9 67
2020-01-17 23:00:00 15.7 10 Oeste 15 Oeste 0 1024.9 1.4 61
2020-01-17 22:00:00 16.1 6 Oeste 11 Noroeste 0 1024.2 1.3 63
2020-01-17 21:00:00 16.6 8 Oeste 12 Oeste 0 1023.9 1.3 60
2020-01-17 20:00:00 17.6 4 Este 13 Este 0 1023.5 1.1 60
2020-01-17 19:00:00 18.1 8 Este 14 Este 0 1022.9 0.5 62
2020-01-17 18:00:00 18.6 6 Este 15 Este 0 1022.6 -0.1 58
2020-01-17 17:00:00 19.8 8 Este 17 Este 0 1022.4 -0.9 55
2020-01-17 16:00:00 20.7 10 Este 18 Este 0 1022.4 -1.9 51
2020-01-17 15:00:00 20.4 10 Este 17 Este 0 1022.7 -2.4 50
2020-01-17 14:00:00 20.9 8 Nordeste 15 Este 0 1023.3 -2.2 52
2020-01-17 13:00:00 20.6 9 Este 18 Sudeste 0 1024.3 -0.5 49
2020-01-17 12:00:00 19.5 6 Este 15 Este 0 1025.1 0.8 54
2020-01-17 11:00:00 19 11 Este 17 Este 0 1025.5 1.7 52
2020-01-17 10:00:00 18.8 10 Este 20 Este 0 1024.8 1.4 54
2020-01-17 09:00:00 15.6 4 Este 10 Noroeste 0 1024.3 1.3 67
2020-01-17 08:00:00 14.7 3 Norte 13 Oeste 0 1023.8 1.1 71
2020-01-17 07:00:00 14.4 9 Oeste 16 Oeste 0 1023.4 0.7 71
2020-01-17 06:00:00 14.6 13 Oeste 18 Oeste 0 1023 0.4 71
2020-01-17 05:00:00 14.5 12 Oeste 17 Oeste 0 1022.7 0.1 72
2020-01-17 04:00:00 14.5 10 Oeste 14 Oeste 0 1022.7 -0.3 71
2020-01-17 03:00:00 14.9 12 Oeste 17 Oeste 0 1022.6 -0.8 63
2020-01-17 02:00:00 15.1 12 Oeste 17 Oeste 0 1022.6 -0.6 57
2020-01-17 01:00:00 15.4 13 Oeste 18 Oeste 0 1023 0.1 44
2020-01-17 00:00:00 15.8 8 Oeste 16 Oeste 0 1023.4 0.9 35
2020-01-16 23:00:00 16.2 13 Oeste 18 Oeste 0 1023.2 1.2 36
2020-01-16 22:00:00 16.3 11 Oeste 15 Oeste 0 1022.9 1.4 48
2020-01-16 21:00:00 16.9 6 Oeste 13 Oeste 0 1022.5 1.4 62
2020-01-16 20:00:00 17.6 6 Oeste 10 Oeste 0 1022 1 66
2020-01-16 19:00:00 18.4 4 Este 10 Sudeste 0 1021.5 0.9 67
2020-01-16 18:00:00 19 6 Este 14 Este 0 1021.1 0.8 62
2020-01-16 17:00:00 20.2 8 Este 15 Este 0 1021 0.5 59
2020-01-16 16:00:00 21.3 9 Este 17 Sudeste 0 1020.6 -0.8 54
2020-01-16 15:00:00 20.9 9 Este 15 Este 0 1020.3 -1.9 55
2020-01-16 14:00:00 21.2 8 Sudeste 14 Este 0 1020.5 -1.7 53
2020-01-16 13:00:00 20.8 8 Este 15 Este 0 1021.4 -0.3 54
2020-01-16 12:00:00 19.6 6 Este 13 Este 0 1022.2 1.1 58
2020-01-16 11:00:00 19 6 Este 10 Sudeste 0 1022.2 1.9 56
2020-01-16 10:00:00 18.2 2 Norte 15 Oeste 0 1021.7 2.4 57
2020-01-16 09:00:00 15.4 12 Oeste 17 Oeste 0 1021.1 2.3 61
2020-01-16 08:00:00 14.5 12 Oeste 17 Oeste 0 1020.3 1.5 59
2020-01-16 07:00:00 14.6 13 Oeste 19 Oeste 0 1019.3 0.6 53
2020-01-16 06:00:00 14.9 10 Oeste 16 Oeste 0 1018.8 0.4 55
2020-01-16 05:00:00 15.5 6 Oeste 19 Noroeste 0 1018.8 0.2 55
2020-01-16 04:00:00 16.2 13 Oeste 22 Oeste 0 1018.7 -0.2 41
2020-01-16 03:00:00 16.1 13 Oeste 19 Oeste 0 1018.4 -0.7 40
2020-01-16 02:00:00 16.4 9 Oeste 18 Noroeste 0 1018.6 -0.3 35
2020-01-16 01:00:00 16.1 10 Oeste 18 Oeste 0 1018.9 0.2 36
2020-01-16 00:00:00 16.1 11 Oeste 17 Oeste 0 1019.1 0.7 42
2020-01-15 23:00:00 15.9 12 Oeste 17 Oeste 0 1018.9 0.9 59
2020-01-15 22:00:00 16.6 9 Oeste 14 Oeste 0 1018.7 1.4 59
2020-01-15 21:00:00 17 9 Oeste 13 Oeste 0 1018.4 1.6 59
2020-01-15 20:00:00 17.5 4 Sur 10 Sur 0 1018 1.2 56
2020-01-15 19:00:00 17.9 4 Sudoeste 9 Sur 0 1017.3 0.5 59
2020-01-15 18:00:00 19.1 4 Sudeste 13 Sur 0 1016.8 -0.1 49
2020-01-15 17:00:00 20.4 6 Sur 15 Sudeste 0 1016.8 0 41
2020-01-15 16:00:00 21.3 7 Sur 15 Sudeste 0 1016.8 -0.5 39
2020-01-15 15:00:00 21.3 8 Sudeste 13 Sur 0 1016.9 -1.5 40
2020-01-15 14:00:00 21.3 8 Sudeste 13 Este 0 1016.8 -1.6 38
2020-01-15 13:00:00 20.4 6 Sudeste 14 Sudeste 0 1017.3 -0.8 44
2020-01-15 12:00:00 19.9 8 Sudeste 12 Sudeste 0 1018.4 0.6 44
2020-01-15 11:00:00 19.1 7 Sudeste 10 Sudeste 0 1018.4 0.9 48
2020-01-15 10:00:00 17.4 2 Noroeste 14 Oeste 0 1018.1 1.5 30
2020-01-15 09:00:00 15.1 10 Oeste 18 Oeste 0 1017.8 1.8 34
2020-01-15 08:00:00 14.5 12 Oeste 19 Oeste 0 1017.5 1.8 34
2020-01-15 07:00:00 14.8 12 Oeste 19 Oeste 0 1016.6 0.6 32
2020-01-15 06:00:00 15 12 Oeste 20 Oeste 0 1016 -0.2 32
2020-01-15 05:00:00 14.7 12 Oeste 21 Oeste 0 1015.7 -0.8 34
2020-01-15 04:00:00 14.7 10 Oeste 18 Oeste 0 1016 -0.6 36
2020-01-15 03:00:00 14.6 12 Oeste 18 Oeste 0 1016.2 -0.6 43
2020-01-15 02:00:00 15 11 Oeste 17 Oeste 0 1016.5 -0.1 55
2020-01-15 01:00:00 15.3 12 Oeste 15 Oeste 0 1016.6 0.4 60
2020-01-15 00:00:00 15.8 10 Oeste 16 Oeste 0 1016.8 0.9 61
2020-01-14 23:00:00 16 10 Oeste 15 Oeste 0 1016.6 1.1 62
2020-01-14 22:00:00 16.6 10 Oeste 14 Oeste 0 1016.2 1 60
2020-01-14 21:00:00 17.5 6 Oeste 17 Sur 0 1015.9 0.6 59
2020-01-14 20:00:00 17.9 6 Sur 22 Sudoeste 0 1015.5 0.4 58
2020-01-14 19:00:00 18.2 7 Sur 19 Sur 0 1015.2 0.6 59
2020-01-14 18:00:00 19 13 Sur 27 Sur 0 1015.3 0.4 59
2020-01-14 17:00:00 20.6 15 Sur 24 Sudoeste 0 1015.1 -0.1 55
2020-01-14 16:00:00 22 16 Sur 26 Sudoeste 0 1014.6 -1.3 46
2020-01-14 15:00:00 22.3 15 Sur 28 Sur 0 1014.9 -1.8 48
2020-01-14 14:00:00 22.4 15 Sudoeste 32 Sur 0 1015.2 -1.9 47
2020-01-14 13:00:00 21.6 21 Sur 38 Sur 0 1015.9 -0.7 53
2020-01-14 12:00:00 20.8 14 Sur 32 Sur 0 1016.7 0.6 57
2020-01-14 11:00:00 20.4 11 Sur 27 Sur 0 1017.1 1.5 57
2020-01-14 10:00:00 19.6 12 Sur 30 Sudoeste 0 1016.6 1.7 63
2020-01-14 09:00:00 16.7 6 Oeste 17 Oeste 0 1016.1 1.8 47
2020-01-14 08:00:00 15.8 13 Oeste 20 Oeste 0 1015.6 1.4 38
2020-01-14 07:00:00 15.2 12 Oeste 18 Oeste 0 1014.9 0.3 53
2020-01-14 06:00:00 15.2 13 Oeste 17 Oeste 0 1014.3 -0.7 65
2020-01-14 05:00:00 15 8 Oeste 13 Oeste 0 1014.2 -0.9 68
2020-01-14 04:00:00 15.4 8 Oeste 10 Noroeste 0 1014.6 -0.9 65
2020-01-14 03:00:00 15.2 5 Noroeste 11 Oeste 0 1015 -1.3 60
2020-01-14 02:00:00 15.4 7 Oeste 13 Oeste 0 1015.1 -1.6 59
2020-01-14 01:00:00 16 9 Oeste 13 Oeste 0 1015.5 -1.5 64
2020-01-14 00:00:00 16.3 8 Oeste 10 Oeste 0 1016.3 -0.6 71
2020-01-13 23:00:00 16.5 8 Oeste 10 Oeste 0 1016.7 0.2 73
2020-01-13 22:00:00 16.9 5 Noroeste 7 Noroeste 0 1017 0.8 73
2020-01-13 21:00:00 17.7 5 Oeste 17 Sudoeste 0 1016.9 1.1 70
2020-01-13 20:00:00 18.3 7 Sudoeste 19 Sur 0 1016.5 0.9 67
2020-01-13 19:00:00 18.6 6 Sudoeste 22 Sudoeste 0 1016.2 0.5 68
2020-01-13 18:00:00 19.4 10 Sudoeste 21 Sur 0 1015.8 -0.1 66
2020-01-13 17:00:00 21.2 12 Sur 23 Sudoeste 0 1015.6 -0.6 56
2020-01-13 16:00:00 21.9 11 Sur 19 Sur 0 1015.7 -1.7 60
2020-01-13 15:00:00 21.8 6 Sudoeste 17 Sudeste 0 1015.9 -2.6 57
2020-01-13 14:00:00 21 9 Este 14 Este 0 1016.2 -2.8 60
2020-01-13 13:00:00 20.8 9 Este 17 Este 0 1017.4 -1.6 59
2020-01-13 12:00:00 19.9 10 Este 17 Este 0 1018.5 -0.2 61
2020-01-13 11:00:00 19.5 10 Este 17 Este 0 1019 0.8 62
2020-01-13 10:00:00 19.2 9 Este 17 Nordeste 0 1019 1.2 64
2020-01-13 09:00:00 18.2 7 Nordeste 17 Nordeste 0 1018.7 1.1 69
2020-01-13 08:00:00 17.7 8 Este 21 Este 0 1018.2 0.8 73
2020-01-13 07:00:00 17.4 5 Este 17 Este 0 1017.8 -0.1 72
2020-01-13 06:00:00 17.3 6 Este 17 Nordeste 0 1017.6 -0.8 71
2020-01-13 05:00:00 17.2 9 Este 23 Este 0 1017.4 -0.8 70
2020-01-13 04:00:00 17.3 12 Este 22 Este 0 1017.9 -0.8 66
2020-01-13 03:00:00 17.1 9 Este 17 Este 0 1018.4 -0.6 66
2020-01-13 02:00:00 16.9 8 Este 14 Este 0 1018.2 -1.2 65
2020-01-13 01:00:00 17.3 9 Este 20 Este 0 1018.7 -0.7 66
2020-01-13 00:00:00 17.5 10 Este 24 Este 0 1019 -0.3 67
2020-01-12 23:00:00 17.5 10 Este 17 Este 0 1019.4 0.3 68
2020-01-12 22:00:00 16.9 4 Nordeste 10 Nordeste 0 1019.4 -0.2 66
2020-01-12 21:00:00 17.3 3 Nordeste 20 Este 0 1019.3 0.2 64
2020-01-12 20:00:00 18 10 Este 20 Este 0 1019.1 0.3 62
2020-01-12 19:00:00 18 8 Este 24 Este 0 1019.6 1.3 63
2020-01-12 18:00:00 18.4 12 Este 28 Nordeste 0 1019.1 1.1 63
2020-01-12 17:00:00 18.8 16 Este 29 Este 0 1018.8 0.3 65
2020-01-12 16:00:00 19.1 15 Este 24 Este 0 1018.3 -1.6 66
2020-01-12 15:00:00 20.2 9 Este 21 Este 0 1018 -2.9 55
2020-01-12 14:00:00 20.1 12 Este 25 Este 0 1018.5 -2.7 54
2020-01-12 13:00:00 19.7 13 Este 27 Nordeste 0 1019.9 -1.3 57
2020-01-12 12:00:00 19.4 17 Este 28 Este 0 1020.9 0.4 55
2020-01-12 11:00:00 19.3 10 Este 27 Nordeste 0 1021.2 1.3 56
2020-01-12 10:00:00 18.5 5 Nordeste 18 Nordeste 0 1021.2 2.1 59
2020-01-12 09:00:00 18.1 6 Norte 18 Este 0 1020.5 1.8 57
2020-01-12 08:00:00 17.8 6 Nordeste 17 Nordeste 0 1019.9 0.7 65
2020-01-12 07:00:00 17.9 6 Nordeste 20 Nordeste 0 1019.1 -0.9 63
2020-01-12 06:00:00 17.7 12 Norte 25 Norte 0 1018.7 -1.3 60
2020-01-12 05:00:00 17.8 12 Norte 19 Norte 0 1019.2 -1.1 59
2020-01-12 04:00:00 17.7 4 Nordeste 17 Norte 0 1020 -0.6 62
2020-01-12 03:00:00 17.8 12 Noroeste 20 Noroeste 0 1020 -1.2 59
2020-01-12 02:00:00 17.6 10 Norte 18 Norte 0 1020.3 -0.9 61
2020-01-12 01:00:00 17.5 9 Noroeste 17 Noroeste 0 1020.6 -0.3 64
2020-01-12 00:00:00 17.2 5 Noroeste 18 Norte 0 1021.2 0.5 68
2020-01-11 23:00:00 17.6 10 Norte 15 Norte 0 1021.2 0.9 64
2020-01-11 22:00:00 17.4 4 Norte 21 Norte 0 1020.9 0.9 61
2020-01-11 21:00:00 17.5 7 Norte 27 Norte 0 1020.7 1.1 64
2020-01-11 20:00:00 17.6 11 Norte 23 Nordeste 0 1020.3 0.8 61
2020-01-11 19:00:00 18.1 8 Norte 26 Nordeste 0 1020 0.6 56
2020-01-11 18:00:00 18.4 12 Norte 26 Norte 0 1019.6 -0.1 59
2020-01-11 17:00:00 18.8 8 Nordeste 23 Nordeste 0 1019.5 -0.9 60
2020-01-11 16:00:00 19.7 8 Norte 34 Nordeste 0 1019.4 -1.8 54
2020-01-11 15:00:00 20 7 Nordeste 23 Este 0 1019.7 -2.3 51
2020-01-11 14:00:00 19.9 12 Norte 28 Norte 0 1020.4 -2.1 54
2020-01-11 13:00:00 19.5 10 Norte 30 Norte 0 1021.2 -1.2 57
2020-01-11 12:00:00 19.4 13 Norte 28 Norte 0 1022 0.4 58
2020-01-11 11:00:00 18.9 8 Nordeste 16 Nordeste 0 1022.5 1.5 58
2020-01-11 10:00:00 18.2 4 Nordeste 24 Nordeste 0 1022.4 1.5 58
2020-01-11 09:00:00 17.4 7 Nordeste 18 Norte 0 1021.6 0.7 61
2020-01-11 08:00:00 16.4 4 Norte 7 Norte 0 1021 0 64
2020-01-11 07:00:00 16.9 6 Norte 12 Norte 0 1020.9 -0.5 61
2020-01-11 06:00:00 17.1 3 Norte 12 Norte 0 1020.9 -0.6 64
2020-01-11 05:00:00 17.5 6 Norte 19 Norte 0 1021 -0.7 62
2020-01-11 04:00:00 18.1 10 Norte 20 Norte 0 1021.4 -0.7 65
2020-01-11 03:00:00 18.1 7 Norte 19 Norte 0 1021.5 -1 67
2020-01-11 02:00:00 18.4 9 Nordeste 21 Nordeste 0 1021.7 -1.1 68
2020-01-11 01:00:00 18.2 5 Nordeste 16 Norte 0 1022.1 -0.9 77
2020-01-11 00:00:00 18.1 7 Nordeste 18 Norte 0 1022.5 -0.2 79
2020-01-10 23:00:00 18.3 6 Nordeste 19 Norte 0 1022.8 0.2 75
2020-01-10 22:00:00 18 13 Norte 24 Norte 0 1023 -- 75
2020-01-10 21:00:00 17.9 4 Nordeste 13 Nordeste 0 1022.7 0.6 76
2020-01-10 20:00:00 18.8 11 Nordeste -- -- -- 1022.6 0.6 72
2020-01-10 19:00:00 -- -- -- -- -- -- -- -- --
2020-01-10 18:00:00 19.5 9 Nordeste -- -- -- 1022.1 0.3 64
2020-01-10 17:00:00 19.7 10 Nordeste 35 Nordeste 0 1022 -0.4 61
2020-01-10 16:00:00 20.9 10 Este 24 Norte 0 1021.8 -1.4 58
2020-01-10 15:00:00 21.6 10 Nordeste 20 Nordeste 0 1021.8 -2.1 56
2020-01-10 14:00:00 19.8 13 Este 26 Norte 0 1022.4 -1.9 73
2020-01-10 13:00:00 18.3 8 Nordeste 26 Este 0.2 1023.2 -0.7 83
2020-01-10 12:00:00 19.3 9 Este 25 Este 0 1023.9 0.5 77
2020-01-10 11:00:00 19.9 10 Este 24 Este 0 1024.3 1.3 67
2020-01-10 10:00:00 19.4 6 Nordeste 19 Nordeste 0 1023.9 1.3 71
2020-01-10 09:00:00 17.8 7 Norte 17 Nordeste 0 1023.4 1 77
2020-01-10 08:00:00 17.8 6 Nordeste 21 Norte 0 1023 0.3 79
2020-01-10 07:00:00 17.7 6 Nordeste 23 Norte 0 1022.6 -0.5 76
2020-01-10 06:00:00 17.5 8 Noroeste 19 Nordeste 0.2 1022.4 -0.6 80
2020-01-10 05:00:00 18 5 Noroeste 13 Nordeste 0 1022.7 -0.7 70
2020-01-10 04:00:00 18.1 9 Norte 25 Norte 0 1023.1 -0.5 70
2020-01-10 03:00:00 17.8 9 Norte 28 Norte 0 1023 -1.2 70
2020-01-10 02:00:00 18.3 8 Norte 30 Nordeste 0 1023.4 -1.2 67
2020-01-10 01:00:00 18.6 7 Nordeste 25 Este 0 1023.6 -0.9 62
2020-01-10 00:00:00 18.4 8 Norte 22 Nordeste 0 1024.2 -0.2 58
2020-01-09 23:00:00 18.5 11 Nordeste 30 Norte 0 1024.6 0.4 57
2020-01-09 22:00:00 18.4 10 Nordeste 34 Norte 0 1024.5 1 57
2020-01-09 21:00:00 18.6 6 Nordeste 35 Norte 0 1024.4 1.2 57
2020-01-09 20:00:00 18.6 15 Norte 31 Norte 0 1024.2 1.3 56
2020-01-09 19:00:00 18.5 14 Norte 32 Norte 0 1023.5 1.1 56
2020-01-09 18:00:00 19.1 15 Norte 37 Norte 0 1023.2 0.8 55
2020-01-09 17:00:00 20.1 13 Norte 30 Norte 0 1022.9 0 51
2020-01-09 16:00:00 21.1 16 Norte 30 Norte 0 1022.4 -1.6 48
2020-01-09 15:00:00 20.6 12 Norte 30 Noroeste 0 1022.4 -2.1 49
2020-01-09 14:00:00 20.9 10 Norte 38 Nordeste 0 1022.9 -2 49
2020-01-09 13:00:00 20.2 21 Norte 36 Norte 0 1024 -0.2 49
2020-01-09 12:00:00 20.2 15 Norte 28 Norte 0 1024.5 1.1 49
2020-01-09 11:00:00 19.6 11 Norte 25 Norte 0 1024.9 2.2 53
2020-01-09 10:00:00 19.1 8 Norte 22 Nordeste 0 1024.2 1.7 53
2020-01-09 09:00:00 18.1 9 Norte 23 Norte 0 1023.4 1.4 60
2020-01-09 08:00:00 17.8 8 Nordeste 17 Norte 0 1022.7 0.7 63
2020-01-09 07:00:00 17.6 12 Norte 29 Norte 0 1022.5 -0.1 60
2020-01-09 06:00:00 17.9 11 Norte 17 Norte 0 1022 -0.6 62
2020-01-09 05:00:00 17.6 7 Nordeste 16 Nordeste 0 1022 -0.7 63
2020-01-09 04:00:00 17.5 9 Nordeste 17 Este 0 1022.6 -0.3 62
2020-01-09 03:00:00 17.4 5 Norte 17 Norte 0 1022.6 -0.7 61
2020-01-09 02:00:00 17.8 6 Norte 27 Norte 0 1022.7 -0.9 59
2020-01-09 01:00:00 17.9 10 Norte 21 Norte 0 1022.9 -0.5 58
2020-01-09 00:00:00 17.8 6 Norte 15 Norte 0 1023.3 -0.1 60
2020-01-08 23:00:00 17.8 8 Norte 22 Nordeste 0 1023.6 0.6 58
2020-01-08 22:00:00 17.7 7 Norte 21 Noroeste 0 1023.4 0.9 58
2020-01-08 21:00:00 18 13 Norte 21 Norte 0 1023.4 1.2 56
2020-01-08 20:00:00 18.2 16 Norte 31 Norte 0 1023 1.1 56
2020-01-08 19:00:00 18.4 13 Norte 24 Nordeste 0 1022.5 0.8 56
2020-01-08 18:00:00 19.2 11 Nordeste 22 Norte 0 1022.2 -- 54
2020-01-08 17:00:00 20.2 13 Nordeste 28 Este 0 1021.9 -- 51
2020-01-08 16:00:00 20.8 12 Nordeste -- -- -- 1021.7 -- 49
2020-01-08 15:00:00 -- -- -- -- -- -- -- -- --
2020-01-08 14:00:00 -- -- -- -- -- -- -- -- --
2020-01-08 13:00:00 -- -- -- -- -- -- -- -- --
2020-01-08 12:00:00 20.2 19 Este 30 Este 0 1023.4 0.8 57
2020-01-08 11:00:00 19.5 15 Este 27 Este 0 1023.9 1.8 58
2020-01-08 10:00:00 18.8 12 Este 23 Nordeste 0 1023.6 2 60
2020-01-08 09:00:00 17 4 Noroeste 10 Norte 0 1022.6 1.5 70
2020-01-08 08:00:00 16.5 3 Norte 18 Norte 0 1022.1 0.8 74
2020-01-08 07:00:00 17.1 8 Nordeste 23 Nordeste 0 1021.6 -0.2 71
2020-01-08 06:00:00 16.1 4 Noroeste 11 Norte 0 1021.1 -0.8 67
2020-01-08 05:00:00 17 5 Nordeste 21 Norte 0 1021.3 -0.5 65
2020-01-08 04:00:00 16.6 8 Norte 16 Norte 0 1021.8 -0.1 65
2020-01-08 03:00:00 15.7 4 Norte 15 Nordeste 0 1021.9 -0.6 67
2020-01-08 02:00:00 16.1 4 Noroeste 14 Norte 0 1021.8 -1 65
2020-01-08 01:00:00 16.7 6 Norte 12 Norte 0 1021.9 -0.7 65
2020-01-08 00:00:00 16.9 6 Norte 12 Norte 0 1022.5 0.3 63
2020-01-07 23:00:00 16.7 5 Oeste 10 Noroeste 0 1022.8 0.9 62
2020-01-07 22:00:00 17.3 5 Norte 12 Norte 0 1022.6 1.4 61
2020-01-07 21:00:00 17.5 5 Norte 9 Norte 0 1022.2 1.2 62
2020-01-07 20:00:00 17.9 5 Norte 15 Norte 0 1021.9 1.2 57
2020-01-07 19:00:00 18.6 8 Este 24 Nordeste 0 1021.2 0.6 57
2020-01-07 18:00:00 18.9 13 Este 24 Este 0 1021 0.4 61
2020-01-07 17:00:00 19.6 15 Este 30 Este 0 1020.7 -0.3 61
2020-01-07 16:00:00 20.3 15 Este 30 Este 0 1020.6 -1 55
2020-01-07 15:00:00 20.9 16 Este 28 Este 0 1020.6 -1.8 56
2020-01-07 14:00:00 20.3 17 Este 31 Este 0 1021 -2 54
2020-01-07 13:00:00 20.4 17 Este 30 Este 0 1021.6 -0.9 57
2020-01-07 12:00:00 19.3 17 Este 30 Este 0 1022.4 0.9 59
2020-01-07 11:00:00 19 16 Este 31 Nordeste 0 1023 2.4 61
2020-01-07 10:00:00 18.4 17 Este 35 Este 0 1022.5 2.6 62
2020-01-07 09:00:00 18 16 Este 32 Este 0 1021.5 2.3 66
2020-01-07 08:00:00 17.9 13 Este 32 Este 0 1020.6 1.5 68
2020-01-07 07:00:00 17.6 12 Nordeste 22 Nordeste 0 1019.9 0.6 62
2020-01-07 06:00:00 17.2 3 Norte 18 Norte 0 1019.2 -0.4 59
2020-01-07 05:00:00 17.7 11 Nordeste 33 Nordeste 0 1019.1 -0.5 56
2020-01-07 04:00:00 17.8 9 Nordeste 30 Nordeste 0 1019.3 -0.8 56
2020-01-07 03:00:00 18 13 Nordeste 32 Norte 0 1019.6 -0.9 56
2020-01-07 02:00:00 18 11 Norte 28 Norte 0 1019.6 -1.5 61
2020-01-07 01:00:00 17.9 18 Norte 35 Norte 0 1020.1 -0.8 61
2020-01-07 00:00:00 18.1 12 Norte 39 Norte 0 1020.5 0 60
2020-01-06 23:00:00 17.8 11 Norte 33 Nordeste 0.2 1021.1 0.9 65
2020-01-06 22:00:00 18.4 13 Nordeste 31 Norte 0 1020.9 1.1 61
2020-01-06 21:00:00 18.3 9 Norte 31 Noroeste 0.2 1020.5 0.8 61
2020-01-06 20:00:00 18.2 6 Norte 28 Noroeste 0 1020.2 0.6 67
2020-01-06 19:00:00 18.9 11 Norte 30 Norte 0 1019.8 0.6 58
2020-01-06 18:00:00 19.3 12 Norte 36 Norte 0 1019.7 0.4 56
2020-01-06 17:00:00 20.4 17 Norte 44 Norte 0 1019.6 -0.2 52
2020-01-06 16:00:00 21.3 20 Norte 45 Norte 0 1019.2 -1.6 47
2020-01-06 15:00:00 20.9 20 Norte 41 Norte 0 1019.3 -2.4 48
2020-01-06 14:00:00 20.8 19 Norte 41 Norte 0 1019.8 -2.8 47
2020-01-06 13:00:00 20 15 Norte 36 Nordeste 0 1020.8 -1.6 49
2020-01-06 12:00:00 19.7 19 Norte 36 Norte 0 1021.7 -0.2 48
2020-01-06 11:00:00 19.5 19 Norte 36 Norte 0.2 1022.6 1.3 50
2020-01-06 10:00:00 19.2 9 Norte 22 Norte 0 1022.4 0.8 54
2020-01-06 09:00:00 18.3 8 Norte 28 Norte 0 1021.9 0.3 61